sensor_id;sensor_type;location;lat;lon;timestamp;temperature;humidity
11559;DHT22;5835;42.930;25.178;2023-03-01T00:00:14;4.90;99.90
11559;DHT22;5835;42.930;25.178;2023-03-01T00:02:41;4.90;99.90
11559;DHT22;5835;42.930;25.178;2023-03-01T00:05:09;4.90;99.90
11559;DHT22;5835;42.930;25.178;2023-03-01T00:07:37;4.90;99.90
11559;DHT22;5835;42.930;25.178;2023-03-01T00:10:05;5.00;99.90
11559;DHT22;5835;42.930;25.178;2023-03-01T00:12:34;5.10;99.90
11559;DHT22;5835;42.930;25.178;2023-03-01T00:15:02;4.90;99.90
11559;DHT22;5835;42.930;25.178;2023-03-01T00:17:30;4.90;99.90
11559;DHT22;5835;42.930;25.178;2023-03-01T00:19:58;5.00;99.90
11559;DHT22;5835;42.930;25.178;2023-03-01T00:22:27;4.90;99.90
11559;DHT22;5835;42.930;25.178;2023-03-01T00:24:55;4.80;99.90
11559;DHT22;5835;42.930;25.178;2023-03-01T00:27:22;4.80;99.90
11559;DHT22;5835;42.930;25.178;2023-03-01T00:29:52;4.80;99.90
11559;DHT22;5835;42.930;25.178;2023-03-01T00:32:19;4.70;99.90
11559;DHT22;5835;42.930;25.178;2023-03-01T00:34:47;4.80;99.90
11559;DHT22;5835;42.930;25.178;2023-03-01T00:37:20;4.80;99.90
11559;DHT22;5835;42.930;25.178;2023-03-01T00:39:47;4.90;99.90
11559;DHT22;5835;42.930;25.178;2023-03-01T00:42:15;4.90;99.90
11559;DHT22;5835;42.930;25.178;2023-03-01T00:44:43;4.90;99.90
11559;DHT22;5835;42.930;25.178;2023-03-01T00:47:12;4.90;99.90
11559;DHT22;5835;42.930;25.178;2023-03-01T00:49:40;4.80;99.90
11559;DHT22;5835;42.930;25.178;2023-03-01T00:52:08;4.90;99.90
11559;DHT22;5835;42.930;25.178;2023-03-01T00:54:35;4.90;99.90
11559;DHT22;5835;42.930;25.178;2023-03-01T00:57:03;4.70;99.90
11559;DHT22;5835;42.930;25.178;2023-03-01T00:59:30;4.70;99.90
11559;DHT22;5835;42.930;25.178;2023-03-01T01:01:58;4.80;99.90
11559;DHT22;5835;42.930;25.178;2023-03-01T01:04:27;4.80;99.90
11559;DHT22;5835;42.930;25.178;2023-03-01T01:06:54;4.80;99.90
11559;DHT22;5835;42.930;25.178;2023-03-01T01:09:25;4.70;99.90
11559;DHT22;5835;42.930;25.178;2023-03-01T01:11:52;4.70;99.90
11559;DHT22;5835;42.930;25.178;2023-03-01T01:14:21;4.60;99.90
11559;DHT22;5835;42.930;25.178;2023-03-01T01:16:49;4.60;99.90
11559;DHT22;5835;42.930;25.178;2023-03-01T01:19:16;4.50;99.90
11559;DHT22;5835;42.930;25.178;2023-03-01T01:21:45;4.50;99.90
11559;DHT22;5835;42.930;25.178;2023-03-01T01:24:18;4.50;99.90
11559;DHT22;5835;42.930;25.178;2023-03-01T01:26:46;4.50;99.90
11559;DHT22;5835;42.930;25.178;2023-03-01T01:29:13;4.40;99.90
11559;DHT22;5835;42.930;25.178;2023-03-01T01:31:42;4.50;99.90
11559;DHT22;5835;42.930;25.178;2023-03-01T01:34:14;4.50;99.90
11559;DHT22;5835;42.930;25.178;2023-03-01T01:36:42;4.60;99.90
11559;DHT22;5835;42.930;25.178;2023-03-01T01:39:11;4.60;99.90
11559;DHT22;5835;42.930;25.178;2023-03-01T01:41:40;4.80;99.90
11559;DHT22;5835;42.930;25.178;2023-03-01T01:44:14;4.80;99.90
11559;DHT22;5835;42.930;25.178;2023-03-01T01:46:44;4.70;99.90
11559;DHT22;5835;42.930;25.178;2023-03-01T01:49:19;4.70;99.90
11559;DHT22;5835;42.930;25.178;2023-03-01T01:51:59;4.70;99.90
11559;DHT22;5835;42.930;25.178;2023-03-01T01:54:34;4.70;99.90
11559;DHT22;5835;42.930;25.178;2023-03-01T01:57:06;4.80;99.90
11559;DHT22;5835;42.930;25.178;2023-03-01T01:59:35;4.70;99.90
11559;DHT22;5835;42.930;25.178;2023-03-01T02:02:03;4.80;99.90
11559;DHT22;5835;42.930;25.178;2023-03-01T02:04:32;4.90;99.90
11559;DHT22;5835;42.930;25.178;2023-03-01T02:07:03;4.90;99.90
11559;DHT22;5835;42.930;25.178;2023-03-01T02:09:35;4.90;99.90
11559;DHT22;5835;42.930;25.178;2023-03-01T02:12:05;4.70;99.90
11559;DHT22;5835;42.930;25.178;2023-03-01T02:14:32;4.90;99.90
11559;DHT22;5835;42.930;25.178;2023-03-01T02:17:00;4.70;99.90
11559;DHT22;5835;42.930;25.178;2023-03-01T02:19:38;4.80;99.90
11559;DHT22;5835;42.930;25.178;2023-03-01T02:22:16;4.80;99.90
11559;DHT22;5835;42.930;25.178;2023-03-01T02:24:54;4.80;99.90
11559;DHT22;5835;42.930;25.178;2023-03-01T02:27:29;4.80;99.90
11559;DHT22;5835;42.930;25.178;2023-03-01T02:29:59;4.80;99.90
11559;DHT22;5835;42.930;25.178;2023-03-01T02:32:29;4.80;99.90
11559;DHT22;5835;42.930;25.178;2023-03-01T02:34:59;4.80;99.90
11559;DHT22;5835;42.930;25.178;2023-03-01T02:37:26;4.80;99.90
11559;DHT22;5835;42.930;25.178;2023-03-01T02:39:58;4.80;99.90
11559;DHT22;5835;42.930;25.178;2023-03-01T02:42:30;4.80;99.90
11559;DHT22;5835;42.930;25.178;2023-03-01T02:45:00;4.70;99.90
11559;DHT22;5835;42.930;25.178;2023-03-01T02:47:29;4.60;99.90
11559;DHT22;5835;42.930;25.178;2023-03-01T02:49:57;4.60;99.90
11559;DHT22;5835;42.930;25.178;2023-03-01T02:52:37;4.70;99.90
11559;DHT22;5835;42.930;25.178;2023-03-01T02:55:09;4.70;99.90
11559;DHT22;5835;42.930;25.178;2023-03-01T02:57:39;4.60;99.90
11559;DHT22;5835;42.930;25.178;2023-03-01T03:00:12;4.60;99.90
11559;DHT22;5835;42.930;25.178;2023-03-01T03:02:45;4.70;99.90
11559;DHT22;5835;42.930;25.178;2023-03-01T03:05:15;4.70;99.90
11559;DHT22;5835;42.930;25.178;2023-03-01T03:07:45;4.60;99.90
11559;DHT22;5835;42.930;25.178;2023-03-01T03:10:15;4.50;99.90
11559;DHT22;5835;42.930;25.178;2023-03-01T03:12:43;4.60;99.90
11559;DHT22;5835;42.930;25.178;2023-03-01T03:15:11;4.60;99.90
11559;DHT22;5835;42.930;25.178;2023-03-01T03:17:40;4.60;99.90
11559;DHT22;5835;42.930;25.178;2023-03-01T03:20:11;4.60;99.90
11559;DHT22;5835;42.930;25.178;2023-03-01T03:22:39;4.70;99.90
11559;DHT22;5835;42.930;25.178;2023-03-01T03:25:07;4.70;99.90
11559;DHT22;5835;42.930;25.178;2023-03-01T03:27:36;4.70;99.90
11559;DHT22;5835;42.930;25.178;2023-03-01T03:30:05;4.80;99.90
11559;DHT22;5835;42.930;25.178;2023-03-01T03:32:36;4.80;99.90
11559;DHT22;5835;42.930;25.178;2023-03-01T03:35:04;4.70;99.90
11559;DHT22;5835;42.930;25.178;2023-03-01T03:37:36;4.80;99.90
11559;DHT22;5835;42.930;25.178;2023-03-01T03:40:21;4.80;99.90
11559;DHT22;5835;42.930;25.178;2023-03-01T03:42:48;4.70;99.90
11559;DHT22;5835;42.930;25.178;2023-03-01T03:45:19;4.70;99.90
11559;DHT22;5835;42.930;25.178;2023-03-01T03:47:50;4.60;99.90
11559;DHT22;5835;42.930;25.178;2023-03-01T03:50:18;4.70;99.90
11559;DHT22;5835;42.930;25.178;2023-03-01T03:52:46;4.60;99.90
11559;DHT22;5835;42.930;25.178;2023-03-01T03:55:13;4.60;99.90
11559;DHT22;5835;42.930;25.178;2023-03-01T03:57:46;4.60;99.90
11559;DHT22;5835;42.930;25.178;2023-03-01T04:00:19;4.60;99.90
11559;DHT22;5835;42.930;25.178;2023-03-01T04:02:48;4.60;99.90
11559;DHT22;5835;42.930;25.178;2023-03-01T04:05:18;4.60;99.90
11559;DHT22;5835;42.930;25.178;2023-03-01T04:07:46;4.60;99.90
11559;DHT22;5835;42.930;25.178;2023-03-01T04:10:15;4.60;99.90
11559;DHT22;5835;42.930;25.178;2023-03-01T04:12:43;4.60;99.90
11559;DHT22;5835;42.930;25.178;2023-03-01T04:15:11;4.50;99.90
11559;DHT22;5835;42.930;25.178;2023-03-01T04:17:42;4.50;99.90
11559;DHT22;5835;42.930;25.178;2023-03-01T04:20:12;4.60;99.90
11559;DHT22;5835;42.930;25.178;2023-03-01T04:22:44;4.60;99.90
11559;DHT22;5835;42.930;25.178;2023-03-01T04:25:13;4.50;99.90
11559;DHT22;5835;42.930;25.178;2023-03-01T04:27:42;4.50;99.90
11559;DHT22;5835;42.930;25.178;2023-03-01T04:30:10;4.50;99.90
11559;DHT22;5835;42.930;25.178;2023-03-01T04:32:43;4.50;99.90
11559;DHT22;5835;42.930;25.178;2023-03-01T04:35:10;4.50;99.90
11559;DHT22;5835;42.930;25.178;2023-03-01T04:37:38;4.50;99.90
11559;DHT22;5835;42.930;25.178;2023-03-01T04:40:10;4.40;99.90
11559;DHT22;5835;42.930;25.178;2023-03-01T04:42:42;4.40;99.90
11559;DHT22;5835;42.930;25.178;2023-03-01T04:45:10;4.50;99.90
11559;DHT22;5835;42.930;25.178;2023-03-01T04:47:40;4.40;99.90
11559;DHT22;5835;42.930;25.178;2023-03-01T04:50:11;4.30;99.90
11559;DHT22;5835;42.930;25.178;2023-03-01T04:52:38;4.30;99.90
11559;DHT22;5835;42.930;25.178;2023-03-01T04:55:09;4.40;99.90
11559;DHT22;5835;42.930;25.178;2023-03-01T04:57:36;4.30;99.90
11559;DHT22;5835;42.930;25.178;2023-03-01T05:00:05;4.30;99.90
11559;DHT22;5835;42.930;25.178;2023-03-01T05:02:47;4.30;99.90
11559;DHT22;5835;42.930;25.178;2023-03-01T05:05:23;4.20;99.90
11559;DHT22;5835;42.930;25.178;2023-03-01T05:07:55;4.20;99.90
11559;DHT22;5835;42.930;25.178;2023-03-01T05:10:25;4.20;99.90
11559;DHT22;5835;42.930;25.178;2023-03-01T05:12:54;4.20;99.90
11559;DHT22;5835;42.930;25.178;2023-03-01T05:15:25;4.20;99.90
11559;DHT22;5835;42.930;25.178;2023-03-01T05:17:54;4.20;99.90
11559;DHT22;5835;42.930;25.178;2023-03-01T05:20:24;4.20;99.90
11559;DHT22;5835;42.930;25.178;2023-03-01T05:22:57;4.20;99.90
11559;DHT22;5835;42.930;25.178;2023-03-01T05:25:26;4.20;99.90
11559;DHT22;5835;42.930;25.178;2023-03-01T05:27:58;4.10;99.90
11559;DHT22;5835;42.930;25.178;2023-03-01T05:30:30;4.20;99.90
11559;DHT22;5835;42.930;25.178;2023-03-01T05:32:58;4.20;99.90
11559;DHT22;5835;42.930;25.178;2023-03-01T05:35:26;4.10;99.90
11559;DHT22;5835;42.930;25.178;2023-03-01T05:37:57;4.20;99.90
11559;DHT22;5835;42.930;25.178;2023-03-01T05:40:25;4.20;99.90
11559;DHT22;5835;42.930;25.178;2023-03-01T05:42:55;4.20;99.90
11559;DHT22;5835;42.930;25.178;2023-03-01T05:45:24;4.20;99.90
11559;DHT22;5835;42.930;25.178;2023-03-01T05:47:53;4.20;99.90
11559;DHT22;5835;42.930;25.178;2023-03-01T05:50:22;4.20;99.90
11559;DHT22;5835;42.930;25.178;2023-03-01T05:52:58;4.30;99.90
11559;DHT22;5835;42.930;25.178;2023-03-01T05:55:29;4.30;99.90
11559;DHT22;5835;42.930;25.178;2023-03-01T05:57:58;4.20;99.90
11559;DHT22;5835;42.930;25.178;2023-03-01T06:00:30;4.20;99.90
11559;DHT22;5835;42.930;25.178;2023-03-01T06:02:59;4.20;99.90
11559;DHT22;5835;42.930;25.178;2023-03-01T06:05:27;4.30;99.90
11559;DHT22;5835;42.930;25.178;2023-03-01T06:07:57;4.20;99.90
11559;DHT22;5835;42.930;25.178;2023-03-01T06:10:27;4.30;99.90
11559;DHT22;5835;42.930;25.178;2023-03-01T06:12:55;4.30;99.90
11559;DHT22;5835;42.930;25.178;2023-03-01T06:15:23;4.30;99.90
11559;DHT22;5835;42.930;25.178;2023-03-01T06:17:53;4.40;99.90
11559;DHT22;5835;42.930;25.178;2023-03-01T06:20:25;4.40;99.90
11559;DHT22;5835;42.930;25.178;2023-03-01T06:22:52;4.40;99.90
11559;DHT22;5835;42.930;25.178;2023-03-01T06:25:22;4.40;99.90
11559;DHT22;5835;42.930;25.178;2023-03-01T06:27:51;4.40;99.90
11559;DHT22;5835;42.930;25.178;2023-03-01T06:30:20;4.40;99.90
11559;DHT22;5835;42.930;25.178;2023-03-01T06:32:48;4.50;99.90
11559;DHT22;5835;42.930;25.178;2023-03-01T06:35:17;4.40;99.90
11559;DHT22;5835;42.930;25.178;2023-03-01T06:37:45;4.50;99.90
11559;DHT22;5835;42.930;25.178;2023-03-01T06:40:13;4.40;99.90
11559;DHT22;5835;42.930;25.178;2023-03-01T06:42:42;4.40;99.90
11559;DHT22;5835;42.930;25.178;2023-03-01T06:45:11;4.50;99.90
11559;DHT22;5835;42.930;25.178;2023-03-01T06:47:39;4.70;99.90
11559;DHT22;5835;42.930;25.178;2023-03-01T06:50:08;4.70;99.90
11559;DHT22;5835;42.930;25.178;2023-03-01T06:52:36;4.70;99.90
11559;DHT22;5835;42.930;25.178;2023-03-01T06:55:04;4.60;99.90
11559;DHT22;5835;42.930;25.178;2023-03-01T06:57:32;4.60;99.90
11559;DHT22;5835;42.930;25.178;2023-03-01T06:59:59;4.60;99.90
11559;DHT22;5835;42.930;25.178;2023-03-01T07:02:28;4.60;99.90
11559;DHT22;5835;42.930;25.178;2023-03-01T07:04:56;4.60;99.90
11559;DHT22;5835;42.930;25.178;2023-03-01T07:07:23;4.50;99.90
11559;DHT22;5835;42.930;25.178;2023-03-01T07:09:51;4.60;99.90
11559;DHT22;5835;42.930;25.178;2023-03-01T07:12:19;4.60;99.90
11559;DHT22;5835;42.930;25.178;2023-03-01T07:14:49;4.50;99.90
11559;DHT22;5835;42.930;25.178;2023-03-01T07:17:16;4.60;99.90
11559;DHT22;5835;42.930;25.178;2023-03-01T07:19:46;4.70;99.90
11559;DHT22;5835;42.930;25.178;2023-03-01T07:22:13;4.60;99.90
11559;DHT22;5835;42.930;25.178;2023-03-01T07:24:41;4.50;99.90
11559;DHT22;5835;42.930;25.178;2023-03-01T07:27:08;4.50;99.90
11559;DHT22;5835;42.930;25.178;2023-03-01T07:29:36;4.60;99.90
11559;DHT22;5835;42.930;25.178;2023-03-01T07:32:04;4.70;99.90
11559;DHT22;5835;42.930;25.178;2023-03-01T07:34:32;4.80;99.90
11559;DHT22;5835;42.930;25.178;2023-03-01T07:37:01;4.80;99.90
11559;DHT22;5835;42.930;25.178;2023-03-01T07:39:29;4.80;99.90
11559;DHT22;5835;42.930;25.178;2023-03-01T07:41:57;4.70;99.90
11559;DHT22;5835;42.930;25.178;2023-03-01T07:44:24;4.70;99.90
11559;DHT22;5835;42.930;25.178;2023-03-01T07:46:52;4.70;99.90
11559;DHT22;5835;42.930;25.178;2023-03-01T07:49:22;4.70;99.90
11559;DHT22;5835;42.930;25.178;2023-03-01T07:51:49;4.70;99.90
11559;DHT22;5835;42.930;25.178;2023-03-01T07:54:18;4.70;99.90
11559;DHT22;5835;42.930;25.178;2023-03-01T07:56:46;4.70;99.90
11559;DHT22;5835;42.930;25.178;2023-03-01T07:59:14;4.70;99.90
11559;DHT22;5835;42.930;25.178;2023-03-01T08:01:41;4.80;99.90
11559;DHT22;5835;42.930;25.178;2023-03-01T08:04:09;4.80;99.90
11559;DHT22;5835;42.930;25.178;2023-03-01T08:06:36;4.80;99.90
11559;DHT22;5835;42.930;25.178;2023-03-01T08:09:04;4.80;99.90
11559;DHT22;5835;42.930;25.178;2023-03-01T08:11:33;4.80;99.90
11559;DHT22;5835;42.930;25.178;2023-03-01T08:14:01;4.80;99.90
11559;DHT22;5835;42.930;25.178;2023-03-01T08:16:28;4.90;99.90
11559;DHT22;5835;42.930;25.178;2023-03-01T08:18:56;4.80;99.90
11559;DHT22;5835;42.930;25.178;2023-03-01T08:21:27;4.90;99.90
11559;DHT22;5835;42.930;25.178;2023-03-01T08:23:54;5.00;99.90
11559;DHT22;5835;42.930;25.178;2023-03-01T08:26:22;4.90;99.90
11559;DHT22;5835;42.930;25.178;2023-03-01T08:28:52;5.00;99.90
11559;DHT22;5835;42.930;25.178;2023-03-01T08:31:21;5.00;99.90
11559;DHT22;5835;42.930;25.178;2023-03-01T08:33:50;5.20;99.90
11559;DHT22;5835;42.930;25.178;2023-03-01T08:36:21;5.30;99.90
11559;DHT22;5835;42.930;25.178;2023-03-01T08:38:49;5.20;99.90
11559;DHT22;5835;42.930;25.178;2023-03-01T08:41:17;5.20;99.90
11559;DHT22;5835;42.930;25.178;2023-03-01T08:43:44;5.30;99.90
11559;DHT22;5835;42.930;25.178;2023-03-01T08:46:13;5.00;99.90
11559;DHT22;5835;42.930;25.178;2023-03-01T08:48:41;5.10;99.90
11559;DHT22;5835;42.930;25.178;2023-03-01T08:51:10;5.10;99.90
11559;DHT22;5835;42.930;25.178;2023-03-01T08:53:38;5.10;99.90
11559;DHT22;5835;42.930;25.178;2023-03-01T08:56:06;4.90;99.90
11559;DHT22;5835;42.930;25.178;2023-03-01T08:58:34;5.00;99.90
11559;DHT22;5835;42.930;25.178;2023-03-01T09:01:07;5.20;99.90
11559;DHT22;5835;42.930;25.178;2023-03-01T09:03:36;5.30;99.90
11559;DHT22;5835;42.930;25.178;2023-03-01T09:06:07;5.30;99.90
11559;DHT22;5835;42.930;25.178;2023-03-01T09:08:35;5.50;99.90
11559;DHT22;5835;42.930;25.178;2023-03-01T09:11:04;5.30;99.90
11559;DHT22;5835;42.930;25.178;2023-03-01T09:13:32;5.30;99.90
11559;DHT22;5835;42.930;25.178;2023-03-01T09:16:01;5.40;99.90
11559;DHT22;5835;42.930;25.178;2023-03-01T09:18:29;5.50;99.90
11559;DHT22;5835;42.930;25.178;2023-03-01T09:21:03;5.40;99.90
11559;DHT22;5835;42.930;25.178;2023-03-01T09:23:33;5.40;99.90
11559;DHT22;5835;42.930;25.178;2023-03-01T09:26:02;5.50;99.90
11559;DHT22;5835;42.930;25.178;2023-03-01T09:28:29;5.50;99.90
11559;DHT22;5835;42.930;25.178;2023-03-01T09:30:58;5.60;99.90
11559;DHT22;5835;42.930;25.178;2023-03-01T09:33:26;5.70;99.90
11559;DHT22;5835;42.930;25.178;2023-03-01T09:35:57;5.90;99.90
11559;DHT22;5835;42.930;25.178;2023-03-01T09:38:26;5.90;99.90
11559;DHT22;5835;42.930;25.178;2023-03-01T09:40:58;5.90;99.90
11559;DHT22;5835;42.930;25.178;2023-03-01T09:43:30;6.00;99.90
11559;DHT22;5835;42.930;25.178;2023-03-01T09:46:04;6.00;99.90
11559;DHT22;5835;42.930;25.178;2023-03-01T09:48:37;6.00;99.90
11559;DHT22;5835;42.930;25.178;2023-03-01T09:53:54;6.10;99.90
11559;DHT22;5835;42.930;25.178;2023-03-01T09:56:29;6.10;99.90
11559;DHT22;5835;42.930;25.178;2023-03-01T09:59:02;6.20;99.90
11559;DHT22;5835;42.930;25.178;2023-03-01T10:01:40;6.10;99.90
11559;DHT22;5835;42.930;25.178;2023-03-01T10:04:26;6.20;99.90
11559;DHT22;5835;42.930;25.178;2023-03-01T10:07:05;6.00;99.90
11559;DHT22;5835;42.930;25.178;2023-03-01T10:09:38;6.10;99.90
11559;DHT22;5835;42.930;25.178;2023-03-01T10:12:10;5.90;99.90
11559;DHT22;5835;42.930;25.178;2023-03-01T10:14:43;5.90;99.90
11559;DHT22;5835;42.930;25.178;2023-03-01T10:17:17;5.90;99.90
11559;DHT22;5835;42.930;25.178;2023-03-01T10:19:47;6.00;99.90
11559;DHT22;5835;42.930;25.178;2023-03-01T10:22:20;6.00;99.90
11559;DHT22;5835;42.930;25.178;2023-03-01T10:24:50;6.10;99.90
11559;DHT22;5835;42.930;25.178;2023-03-01T10:27:22;6.10;99.90
11559;DHT22;5835;42.930;25.178;2023-03-01T10:29:58;6.20;99.90
11559;DHT22;5835;42.930;25.178;2023-03-01T10:32:28;6.00;99.90
11559;DHT22;5835;42.930;25.178;2023-03-01T10:34:55;6.10;99.90
11559;DHT22;5835;42.930;25.178;2023-03-01T10:37:23;6.10;99.90
11559;DHT22;5835;42.930;25.178;2023-03-01T10:39:58;6.00;99.90
11559;DHT22;5835;42.930;25.178;2023-03-01T10:42:32;6.20;99.90
11559;DHT22;5835;42.930;25.178;2023-03-01T10:45:16;6.10;99.90
11559;DHT22;5835;42.930;25.178;2023-03-01T10:47:45;6.20;99.90
11559;DHT22;5835;42.930;25.178;2023-03-01T10:50:19;6.00;99.90
11559;DHT22;5835;42.930;25.178;2023-03-01T10:52:58;6.20;99.90
11559;DHT22;5835;42.930;25.178;2023-03-01T10:55:34;6.20;99.90
11559;DHT22;5835;42.930;25.178;2023-03-01T10:58:16;6.10;99.90
11559;DHT22;5835;42.930;25.178;2023-03-01T11:00:49;6.20;99.90
11559;DHT22;5835;42.930;25.178;2023-03-01T11:03:23;6.00;99.90
11559;DHT22;5835;42.930;25.178;2023-03-01T11:06:00;6.00;99.90
11559;DHT22;5835;42.930;25.178;2023-03-01T11:08:38;5.90;99.90
11559;DHT22;5835;42.930;25.178;2023-03-01T11:11:23;5.80;99.90
11559;DHT22;5835;42.930;25.178;2023-03-01T11:13:57;5.80;99.90
11559;DHT22;5835;42.930;25.178;2023-03-01T11:16:32;5.70;99.90
11559;DHT22;5835;42.930;25.178;2023-03-01T11:22:00;5.80;99.90
11559;DHT22;5835;42.930;25.178;2023-03-01T11:24:37;5.80;99.90
11559;DHT22;5835;42.930;25.178;2023-03-01T11:27:17;5.90;99.90
11559;DHT22;5835;42.930;25.178;2023-03-01T11:29:48;5.70;99.90
11559;DHT22;5835;42.930;25.178;2023-03-01T11:32:19;5.80;99.90
11559;DHT22;5835;42.930;25.178;2023-03-01T11:34:53;5.70;99.90
11559;DHT22;5835;42.930;25.178;2023-03-01T11:37:32;5.70;99.90
11559;DHT22;5835;42.930;25.178;2023-03-01T11:40:10;5.80;99.90
11559;DHT22;5835;42.930;25.178;2023-03-01T11:42:50;5.80;99.90
11559;DHT22;5835;42.930;25.178;2023-03-01T11:45:22;5.80;99.90
11559;DHT22;5835;42.930;25.178;2023-03-01T11:47:59;5.80;99.90
11559;DHT22;5835;42.930;25.178;2023-03-01T11:50:39;5.80;99.90
11559;DHT22;5835;42.930;25.178;2023-03-01T11:53:23;5.90;99.90
11559;DHT22;5835;42.930;25.178;2023-03-01T11:56:05;5.90;99.90
11559;DHT22;5835;42.930;25.178;2023-03-01T11:59:00;5.80;99.90
11559;DHT22;5835;42.930;25.178;2023-03-01T12:01:49;5.90;99.90
11559;DHT22;5835;42.930;25.178;2023-03-01T12:07:39;5.90;99.90
11559;DHT22;5835;42.930;25.178;2023-03-01T12:10:22;6.00;99.90
11559;DHT22;5835;42.930;25.178;2023-03-01T12:19:06;5.90;99.90
11559;DHT22;5835;42.930;25.178;2023-03-01T12:21:45;6.10;99.90
11559;DHT22;5835;42.930;25.178;2023-03-01T12:24:47;6.10;99.90
11559;DHT22;5835;42.930;25.178;2023-03-01T12:27:38;6.10;99.90
11559;DHT22;5835;42.930;25.178;2023-03-01T12:30:24;6.00;99.90
11559;DHT22;5835;42.930;25.178;2023-03-01T12:33:06;6.10;99.90
11559;DHT22;5835;42.930;25.178;2023-03-01T12:38:33;6.00;99.90
11559;DHT22;5835;42.930;25.178;2023-03-01T12:41:28;6.00;99.90
11559;DHT22;5835;42.930;25.178;2023-03-01T12:44:07;6.00;99.90
11559;DHT22;5835;42.930;25.178;2023-03-01T12:46:56;5.90;99.90
11559;DHT22;5835;42.930;25.178;2023-03-01T12:49:34;6.00;99.90
11559;DHT22;5835;42.930;25.178;2023-03-01T12:52:10;5.90;99.90
11559;DHT22;5835;42.930;25.178;2023-03-01T12:54:38;5.80;99.90
11559;DHT22;5835;42.930;25.178;2023-03-01T12:57:11;5.80;99.90
11559;DHT22;5835;42.930;25.178;2023-03-01T12:59:42;5.80;99.90
11559;DHT22;5835;42.930;25.178;2023-03-01T13:02:16;5.90;99.90
11559;DHT22;5835;42.930;25.178;2023-03-01T13:05:00;5.90;99.90
11559;DHT22;5835;42.930;25.178;2023-03-01T13:07:38;5.80;99.90
11559;DHT22;5835;42.930;25.178;2023-03-01T13:10:23;5.70;99.90
11559;DHT22;5835;42.930;25.178;2023-03-01T13:13:01;5.70;99.90
11559;DHT22;5835;42.930;25.178;2023-03-01T13:15:36;5.80;99.90
11559;DHT22;5835;42.930;25.178;2023-03-01T13:18:34;5.80;99.90
11559;DHT22;5835;42.930;25.178;2023-03-01T13:21:03;5.80;99.90
11559;DHT22;5835;42.930;25.178;2023-03-01T13:23:35;5.70;99.90
11559;DHT22;5835;42.930;25.178;2023-03-01T13:26:10;5.80;99.90
11559;DHT22;5835;42.930;25.178;2023-03-01T13:28:49;5.80;99.90
11559;DHT22;5835;42.930;25.178;2023-03-01T13:34:44;5.80;99.90
11559;DHT22;5835;42.930;25.178;2023-03-01T13:37:27;5.90;99.90
11559;DHT22;5835;42.930;25.178;2023-03-01T13:39:58;5.80;99.90
11559;DHT22;5835;42.930;25.178;2023-03-01T13:42:39;5.70;99.90
11559;DHT22;5835;42.930;25.178;2023-03-01T13:45:25;5.80;99.90
11559;DHT22;5835;42.930;25.178;2023-03-01T13:48:02;5.80;99.90
11559;DHT22;5835;42.930;25.178;2023-03-01T13:50:36;5.70;99.90
11559;DHT22;5835;42.930;25.178;2023-03-01T13:53:09;5.70;99.90
11559;DHT22;5835;42.930;25.178;2023-03-01T13:55:42;5.80;99.90
11559;DHT22;5835;42.930;25.178;2023-03-01T13:58:18;5.90;99.90
11559;DHT22;5835;42.930;25.178;2023-03-01T14:00:46;5.80;99.90
11559;DHT22;5835;42.930;25.178;2023-03-01T14:03:16;5.70;99.90
11559;DHT22;5835;42.930;25.178;2023-03-01T14:05:59;5.70;99.90
11559;DHT22;5835;42.930;25.178;2023-03-01T14:08:30;5.70;99.90
11559;DHT22;5835;42.930;25.178;2023-03-01T14:14:11;5.60;99.90
11559;DHT22;5835;42.930;25.178;2023-03-01T14:16:48;5.60;99.90
11559;DHT22;5835;42.930;25.178;2023-03-01T14:19:21;5.60;99.90
11559;DHT22;5835;42.930;25.178;2023-03-01T14:21:59;5.60;99.90
11559;DHT22;5835;42.930;25.178;2023-03-01T14:24:35;5.60;99.90
11559;DHT22;5835;42.930;25.178;2023-03-01T14:27:11;5.60;99.90
11559;DHT22;5835;42.930;25.178;2023-03-01T14:29:39;5.60;99.90
11559;DHT22;5835;42.930;25.178;2023-03-01T14:32:12;5.60;99.90
11559;DHT22;5835;42.930;25.178;2023-03-01T14:34:43;5.60;99.90
11559;DHT22;5835;42.930;25.178;2023-03-01T14:37:19;5.60;99.90
11559;DHT22;5835;42.930;25.178;2023-03-01T14:39:48;5.60;99.90
11559;DHT22;5835;42.930;25.178;2023-03-01T14:42:17;5.60;99.90
11559;DHT22;5835;42.930;25.178;2023-03-01T14:44:47;5.60;99.90
11559;DHT22;5835;42.930;25.178;2023-03-01T14:47:22;5.60;99.90
11559;DHT22;5835;42.930;25.178;2023-03-01T14:49:56;5.60;99.90
11559;DHT22;5835;42.930;25.178;2023-03-01T14:52:30;5.60;99.90
11559;DHT22;5835;42.930;25.178;2023-03-01T14:55:04;5.80;99.90
11559;DHT22;5835;42.930;25.178;2023-03-01T14:57:32;5.50;99.90
11559;DHT22;5835;42.930;25.178;2023-03-01T15:00:01;5.60;99.90
11559;DHT22;5835;42.930;25.178;2023-03-01T15:02:31;5.50;99.90
11559;DHT22;5835;42.930;25.178;2023-03-01T15:05:01;5.60;99.90
11559;DHT22;5835;42.930;25.178;2023-03-01T15:07:33;5.50;99.90
11559;DHT22;5835;42.930;25.178;2023-03-01T15:10:04;5.60;99.90
11559;DHT22;5835;42.930;25.178;2023-03-01T15:12:37;5.50;99.90
11559;DHT22;5835;42.930;25.178;2023-03-01T15:15:37;5.50;99.90
11559;DHT22;5835;42.930;25.178;2023-03-01T15:18:17;5.50;99.90
11559;DHT22;5835;42.930;25.178;2023-03-01T15:20:45;5.50;99.90
11559;DHT22;5835;42.930;25.178;2023-03-01T15:23:24;5.40;99.90
11559;DHT22;5835;42.930;25.178;2023-03-01T15:25:55;5.40;99.90
11559;DHT22;5835;42.930;25.178;2023-03-01T15:28:25;5.30;99.90
11559;DHT22;5835;42.930;25.178;2023-03-01T15:30:57;5.30;99.90
11559;DHT22;5835;42.930;25.178;2023-03-01T15:33:33;5.40;99.90
11559;DHT22;5835;42.930;25.178;2023-03-01T15:36:03;5.40;99.90
11559;DHT22;5835;42.930;25.178;2023-03-01T15:38:33;5.40;99.90
11559;DHT22;5835;42.930;25.178;2023-03-01T15:41:21;5.40;99.90
11559;DHT22;5835;42.930;25.178;2023-03-01T15:43:49;5.40;99.90
11559;DHT22;5835;42.930;25.178;2023-03-01T15:46:28;5.30;99.90
11559;DHT22;5835;42.930;25.178;2023-03-01T15:48:59;5.30;99.90
11559;DHT22;5835;42.930;25.178;2023-03-01T15:51:31;5.30;99.90
11559;DHT22;5835;42.930;25.178;2023-03-01T15:54:02;5.30;99.90
11559;DHT22;5835;42.930;25.178;2023-03-01T15:56:32;5.30;99.90
11559;DHT22;5835;42.930;25.178;2023-03-01T15:59:01;5.30;99.90
11559;DHT22;5835;42.930;25.178;2023-03-01T16:01:30;5.30;99.90
11559;DHT22;5835;42.930;25.178;2023-03-01T16:04:00;5.40;99.90
11559;DHT22;5835;42.930;25.178;2023-03-01T16:06:28;5.30;99.90
11559;DHT22;5835;42.930;25.178;2023-03-01T16:08:57;5.40;99.90
11559;DHT22;5835;42.930;25.178;2023-03-01T16:11:24;5.30;99.90
11559;DHT22;5835;42.930;25.178;2023-03-01T16:13:54;5.40;99.90
11559;DHT22;5835;42.930;25.178;2023-03-01T16:16:21;5.40;99.90
11559;DHT22;5835;42.930;25.178;2023-03-01T16:18:48;5.30;99.90
11559;DHT22;5835;42.930;25.178;2023-03-01T16:21:20;5.30;99.90
11559;DHT22;5835;42.930;25.178;2023-03-01T16:23:48;5.20;99.90
11559;DHT22;5835;42.930;25.178;2023-03-01T16:26:17;5.20;99.90
11559;DHT22;5835;42.930;25.178;2023-03-01T16:28:45;5.20;99.90
11559;DHT22;5835;42.930;25.178;2023-03-01T16:31:17;5.20;99.90
11559;DHT22;5835;42.930;25.178;2023-03-01T16:33:45;5.30;99.90
11559;DHT22;5835;42.930;25.178;2023-03-01T16:36:17;5.30;99.90